createdAt,value
2023-04-16T00:00:52.517Z,18.69
2023-04-16T00:05:22.738Z,18.69
2023-04-16T00:09:40.492Z,18.75
2023-04-16T00:13:58.028Z,18.58
2023-04-16T00:18:15.846Z,18.63
2023-04-16T00:22:33.384Z,18.72
2023-04-16T00:26:51.408Z,18.55
2023-04-16T00:31:08.854Z,18.60
2023-04-16T00:35:27.397Z,18.58
2023-04-16T00:39:44.891Z,18.56
2023-04-16T00:44:02.590Z,18.61
2023-04-16T00:48:21.252Z,18.76
2023-04-16T00:52:39.097Z,18.72
2023-04-16T00:56:58.680Z,18.56
2023-04-16T01:01:16.483Z,18.70
2023-04-16T01:05:34.255Z,18.66
2023-04-16T01:09:51.799Z,18.51
2023-04-16T01:14:09.468Z,18.69
2023-04-16T01:18:27.170Z,18.62
2023-04-16T01:22:44.844Z,18.58
2023-04-16T01:27:02.392Z,18.72
2023-04-16T01:31:20.094Z,18.72
2023-04-16T01:35:38.275Z,18.59
2023-04-16T01:39:56.215Z,18.60
2023-04-16T01:44:13.858Z,18.57
2023-04-16T01:48:31.673Z,18.61
2023-04-16T01:52:49.399Z,18.62
2023-04-16T01:57:07.068Z,18.46
2023-04-16T02:01:24.852Z,18.41
2023-04-16T02:05:42.629Z,18.71
2023-04-16T02:10:00.207Z,18.55
2023-04-16T02:14:18.132Z,18.46
2023-04-16T02:18:35.629Z,18.49
2023-04-16T02:22:53.284Z,18.45
2023-04-16T02:27:12.299Z,18.59
2023-04-16T02:31:30.806Z,18.51
2023-04-16T02:35:48.958Z,18.42
2023-04-16T02:40:07.549Z,18.59
2023-04-16T02:44:26.048Z,18.55
2023-04-16T02:48:43.527Z,18.41
2023-04-16T02:53:01.288Z,18.51
2023-04-16T02:57:18.916Z,18.42
2023-04-16T03:01:36.457Z,18.46
2023-04-16T03:05:54.392Z,18.39
2023-04-16T03:10:12.510Z,18.44
2023-04-16T03:14:31.528Z,18.59
2023-04-16T03:18:49.673Z,18.43
2023-04-16T03:23:07.264Z,18.41
2023-04-16T03:27:24.939Z,18.55
2023-04-16T03:31:42.638Z,18.71
2023-04-16T03:36:00.651Z,18.52
2023-04-16T03:40:18.581Z,18.50
2023-04-16T03:44:36.358Z,18.59
2023-04-16T03:48:54.069Z,18.34
2023-04-16T03:53:11.564Z,18.45
2023-04-16T03:57:29.393Z,18.32
2023-04-16T04:01:47.091Z,18.45
2023-04-16T04:06:09.176Z,18.52
2023-04-16T04:10:26.852Z,18.42
2023-04-16T04:14:44.513Z,18.55
2023-04-16T04:19:02.132Z,18.41
2023-04-16T04:23:19.836Z,18.59
2023-04-16T04:27:37.365Z,18.40
2023-04-16T04:31:55.734Z,18.38
2023-04-16T04:36:13.348Z,18.46
2023-04-16T04:40:31.107Z,18.37
2023-04-16T04:44:49.028Z,18.49
2023-04-16T04:49:06.980Z,18.40
2023-04-16T04:53:24.681Z,18.54
2023-04-16T04:57:42.880Z,18.65
2023-04-16T05:02:00.980Z,18.51
2023-04-16T05:06:18.875Z,18.63
2023-04-16T05:10:36.640Z,18.51
2023-04-16T05:14:54.248Z,18.63
2023-04-16T05:19:12.019Z,18.59
2023-04-16T05:23:30.227Z,18.60
2023-04-16T05:27:47.713Z,18.49
2023-04-16T05:32:05.668Z,18.55
2023-04-16T05:36:23.164Z,18.61
2023-04-16T05:40:40.911Z,18.60
2023-04-16T05:44:58.414Z,18.66
2023-04-16T05:49:19.027Z,18.79
2023-04-16T05:53:36.723Z,18.71
2023-04-16T05:57:54.565Z,18.85
2023-04-16T06:02:12.397Z,18.72
2023-04-16T06:06:30.123Z,18.88
2023-04-16T06:10:47.856Z,18.94
2023-04-16T06:15:06.691Z,18.90
2023-04-16T06:19:24.196Z,19.04
2023-04-16T06:23:41.970Z,18.89
2023-04-16T06:27:59.557Z,19.21
2023-04-16T06:32:17.849Z,18.83
2023-04-16T06:36:37.727Z,19.00
2023-04-16T06:40:55.567Z,18.88
2023-04-16T06:45:13.720Z,18.92
2023-04-16T06:49:31.459Z,18.90
2023-04-16T06:53:49.732Z,18.75
2023-04-16T06:58:07.450Z,19.02
2023-04-16T07:02:25.384Z,18.84
2023-04-16T07:06:43.242Z,18.95
2023-04-16T07:11:01.269Z,18.98
2023-04-16T07:15:19.008Z,18.77
2023-04-16T07:19:37.412Z,18.89
2023-04-16T07:23:55.188Z,18.87
2023-04-16T07:28:13.184Z,18.82
2023-04-16T07:32:31.095Z,19.18
2023-04-16T07:36:49.125Z,18.88
2023-04-16T07:41:06.906Z,18.97
2023-04-16T07:45:24.945Z,19.09
2023-04-16T07:49:42.779Z,19.01
2023-04-16T07:54:00.289Z,18.97
2023-04-16T07:58:17.916Z,19.03
2023-04-16T08:02:35.728Z,19.02
2023-04-16T08:06:54.697Z,19.06
2023-04-16T08:11:12.291Z,18.94
2023-04-16T08:15:30.138Z,19.01
2023-04-16T08:19:47.787Z,19.19
2023-04-16T08:24:05.877Z,18.99
2023-04-16T08:28:23.421Z,19.25
2023-04-16T08:32:41.274Z,19.23
2023-04-16T08:36:58.730Z,19.26
2023-04-16T08:41:16.678Z,19.51
2023-04-16T08:45:35.684Z,19.50
2023-04-16T08:49:58.464Z,19.51
2023-04-16T08:54:43.594Z,19.60
2023-04-16T08:59:05.581Z,19.82
2023-04-16T09:03:23.359Z,20.16
2023-04-16T09:07:41.925Z,19.77
2023-04-16T09:12:00.318Z,19.95
2023-04-16T09:16:18.752Z,20.09
2023-04-16T09:20:36.527Z,20.16
2023-04-16T09:24:54.160Z,20.37
2023-04-16T09:29:11.994Z,20.26
2023-04-16T09:33:29.803Z,20.21
2023-04-16T09:37:58.172Z,20.45
2023-04-16T09:42:16.003Z,20.45
2023-04-16T09:46:35.475Z,20.43
2023-04-16T09:50:53.183Z,20.21
2023-04-16T09:55:13.734Z,19.96
2023-04-16T09:59:34.404Z,20.66
2023-04-16T10:03:56.013Z,20.26
2023-04-16T10:08:14.876Z,20.04
2023-04-16T10:12:35.802Z,20.03
2023-04-16T10:16:54.280Z,19.85
2023-04-16T10:21:13.055Z,20.52
2023-04-16T10:25:32.504Z,20.80
2023-04-16T10:29:50.911Z,20.10
2023-04-16T10:34:10.400Z,20.27
2023-04-16T10:38:28.753Z,20.40
2023-04-16T10:42:58.671Z,21.05
2023-04-16T10:47:16.302Z,21.03
2023-04-16T10:51:36.578Z,20.68
2023-04-16T10:56:13.086Z,20.99
2023-04-16T11:00:30.975Z,20.85
2023-04-16T11:04:50.031Z,20.43
2023-04-16T11:09:26.501Z,20.77
2023-04-16T11:13:48.889Z,20.17
2023-04-16T11:18:07.473Z,20.57
2023-04-16T11:22:25.391Z,22.37
2023-04-16T11:26:43.034Z,21.23
2023-04-16T11:31:09.402Z,24.59
2023-04-16T11:35:27.562Z,26.17
2023-04-16T11:39:52.951Z,23.27
2023-04-16T11:44:28.344Z,26.41
2023-04-16T11:48:48.328Z,25.72
2023-04-16T11:53:06.790Z,26.88
2023-04-16T11:57:33.235Z,28.12
2023-04-16T12:01:56.449Z,27.38
2023-04-16T12:06:14.303Z,23.21
2023-04-16T12:10:37.944Z,28.08
2023-04-16T12:14:57.852Z,27.30
2023-04-16T12:19:15.825Z,22.83
2023-04-16T12:23:34.607Z,22.61
2023-04-16T12:27:56.101Z,21.80
2023-04-16T12:32:23.701Z,21.00
2023-04-16T12:36:43.095Z,21.14
2023-04-16T12:41:02.662Z,21.14
2023-04-16T12:45:20.341Z,21.11
2023-04-16T12:49:38.112Z,22.68
2023-04-16T12:53:56.046Z,26.94
2023-04-16T12:58:13.686Z,26.87
2023-04-16T13:02:32.600Z,25.31
2023-04-16T13:06:51.566Z,21.44
2023-04-16T13:11:09.239Z,20.80
2023-04-16T13:15:27.017Z,20.96
2023-04-16T13:19:44.741Z,22.45
2023-04-16T13:24:02.611Z,25.93
2023-04-16T13:28:20.155Z,25.06
2023-04-16T13:32:37.986Z,26.00
2023-04-16T13:36:55.569Z,25.61
2023-04-16T13:41:13.437Z,25.54
2023-04-16T13:45:31.077Z,25.36
2023-04-16T13:49:49.586Z,25.46
2023-04-16T13:54:07.091Z,23.53
2023-04-16T13:58:25.052Z,25.03
2023-04-16T14:02:43.484Z,24.43
2023-04-16T14:07:01.440Z,25.20
2023-04-16T14:11:19.117Z,21.28
2023-04-16T14:15:36.679Z,20.94
2023-04-16T14:19:54.399Z,20.55
2023-04-16T14:24:11.927Z,20.56
2023-04-16T14:28:29.639Z,21.10
2023-04-16T14:32:47.267Z,20.35
2023-04-16T14:37:06.045Z,20.10
2023-04-16T14:41:23.669Z,19.68
2023-04-16T14:45:42.072Z,19.80
2023-04-16T14:50:00.040Z,19.80
2023-04-16T14:54:17.700Z,19.67
2023-04-16T14:58:38.622Z,19.61
2023-04-16T15:02:57.086Z,19.66
2023-04-16T15:07:14.859Z,19.66
2023-04-16T15:11:32.489Z,19.51
2023-04-16T15:15:50.242Z,19.49
2023-04-16T15:20:09.516Z,19.39
2023-04-16T15:24:27.053Z,19.26
2023-04-16T15:28:44.744Z,19.17
2023-04-16T15:33:02.393Z,19.22
2023-04-16T15:37:20.174Z,19.15
2023-04-16T15:41:50.229Z,19.08
2023-04-16T15:46:17.450Z,19.08
2023-04-16T15:50:35.407Z,19.02
2023-04-16T15:54:53.217Z,19.03
2023-04-16T15:59:10.913Z,18.99
2023-04-16T16:03:29.044Z,18.99
2023-04-16T16:07:47.018Z,18.97
2023-04-16T16:12:04.762Z,18.93
2023-04-16T16:16:22.379Z,18.89
2023-04-16T16:20:40.934Z,18.85
2023-04-16T16:24:58.698Z,18.80
2023-04-16T16:29:16.531Z,18.80
2023-04-16T16:33:34.397Z,18.76
2023-04-16T16:37:57.626Z,18.69
2023-04-16T16:42:18.989Z,18.67
2023-04-16T16:46:37.197Z,18.64
2023-04-16T16:50:54.999Z,18.62
2023-04-16T16:55:12.884Z,18.60
2023-04-16T16:59:30.452Z,18.50
2023-04-16T17:03:48.171Z,18.49
2023-04-16T17:08:06.792Z,18.50
2023-04-16T17:12:25.412Z,18.43
2023-04-16T17:16:43.243Z,18.44
2023-04-16T17:21:00.745Z,18.40
2023-04-16T17:25:18.513Z,18.41
2023-04-16T17:29:36.344Z,18.36
2023-04-16T17:33:53.986Z,18.34
2023-04-16T17:38:11.991Z,18.31
2023-04-16T17:42:29.724Z,18.35
2023-04-16T17:46:47.597Z,18.30
2023-04-16T17:51:17.648Z,18.34
2023-04-16T17:55:36.078Z,18.30
2023-04-16T17:59:53.761Z,18.32
2023-04-16T18:04:12.036Z,18.29
2023-04-16T18:08:30.132Z,18.30
2023-04-16T18:12:48.178Z,18.29
2023-04-16T18:17:06.603Z,18.24
2023-04-16T18:21:24.739Z,18.19
2023-04-16T18:25:42.300Z,18.16
2023-04-16T18:30:00.135Z,18.16
2023-04-16T18:34:17.793Z,18.23
2023-04-16T18:38:36.989Z,18.11
2023-04-16T18:42:59.169Z,18.06
2023-04-16T18:47:17.123Z,18.13
2023-04-16T18:51:34.763Z,18.10
2023-04-16T18:55:55.744Z,18.11
2023-04-16T19:00:14.017Z,18.03
2023-04-16T19:04:32.017Z,18.05
2023-04-16T19:08:49.681Z,18.00
2023-04-16T19:13:07.462Z,17.99
2023-04-16T19:17:25.050Z,17.94
2023-04-16T19:21:42.770Z,17.96
2023-04-16T19:26:01.732Z,17.92
2023-04-16T19:30:19.534Z,17.87
2023-04-16T19:34:37.159Z,17.87
2023-04-16T19:38:54.862Z,17.86
2023-04-16T19:43:13.114Z,17.87
2023-04-16T19:47:30.612Z,17.79
2023-04-16T19:51:48.350Z,17.74
2023-04-16T19:56:06.099Z,17.77
2023-04-16T20:00:23.734Z,17.72
2023-04-16T20:04:41.496Z,17.73
2023-04-16T20:08:59.085Z,17.72
2023-04-16T20:13:18.613Z,17.68
2023-04-16T20:17:36.387Z,17.67
2023-04-16T20:21:54.233Z,17.65
2023-04-16T20:26:18.993Z,17.64
2023-04-16T20:30:39.633Z,17.64
2023-04-16T20:34:57.334Z,17.63
2023-04-16T20:39:14.961Z,17.74
2023-04-16T20:43:38.753Z,17.70
2023-04-16T20:47:56.541Z,17.75
2023-04-16T20:52:14.802Z,17.67
2023-04-16T20:56:32.344Z,17.69
2023-04-16T21:00:51.756Z,17.69
2023-04-16T21:05:14.310Z,17.68
2023-04-16T21:09:32.176Z,17.63
2023-04-16T21:13:49.730Z,17.68
2023-04-16T21:18:08.046Z,17.65
2023-04-16T21:22:25.622Z,17.66
2023-04-16T21:26:43.325Z,17.63
2023-04-16T21:31:00.924Z,17.73
2023-04-16T21:35:18.753Z,17.55
2023-04-16T21:39:36.473Z,17.49
2023-04-16T21:43:54.827Z,17.48
2023-04-16T21:48:12.538Z,17.48
2023-04-16T21:52:30.790Z,17.48
2023-04-16T21:56:48.757Z,17.46
2023-04-16T22:01:07.275Z,17.45
2023-04-16T22:05:27.117Z,17.67
2023-04-16T22:09:44.657Z,17.56
2023-04-16T22:14:03.366Z,17.63
2023-04-16T22:18:21.045Z,17.56
2023-04-16T22:22:39.730Z,17.59
2023-04-16T22:26:57.276Z,17.47
2023-04-16T22:31:14.973Z,17.48
2023-04-16T22:35:33.241Z,17.51
2023-04-16T22:39:51.262Z,17.66
2023-04-16T22:44:08.928Z,17.47
2023-04-16T22:48:26.616Z,17.47
2023-04-16T22:52:44.199Z,17.45
2023-04-16T22:57:02.455Z,17.49
2023-04-16T23:01:19.988Z,17.48
2023-04-16T23:05:37.941Z,17.46
2023-04-16T23:09:55.733Z,17.43
2023-04-16T23:14:16.218Z,17.37
2023-04-16T23:18:34.437Z,17.55
2023-04-16T23:22:53.158Z,17.40
2023-04-16T23:27:10.919Z,17.44
2023-04-16T23:31:28.633Z,17.49
2023-04-16T23:35:47.769Z,17.48
2023-04-16T23:40:09.061Z,17.41
2023-04-16T23:44:28.381Z,17.37
2023-04-16T23:48:45.956Z,17.35
2023-04-16T23:53:03.656Z,17.35
2023-04-16T23:57:21.223Z,17.41
